createdAt,value
2023-03-23T15:59:48.535Z,21.75
2023-03-23T16:02:24.361Z,21.76
2023-03-23T16:04:52.211Z,21.73
2023-03-23T16:07:23.518Z,21.70
2023-03-23T16:09:51.172Z,21.67
2023-03-23T16:12:18.548Z,21.65
2023-03-23T16:14:45.559Z,21.62
2023-03-23T16:17:20.635Z,21.58
2023-03-23T16:19:48.096Z,21.53
2023-03-23T16:22:16.620Z,21.52
2023-03-23T16:24:44.319Z,21.47
2023-03-23T16:27:14.130Z,21.46
2023-03-23T16:32:14.392Z,21.40
2023-03-23T16:34:41.348Z,21.38
2023-03-23T16:37:11.975Z,21.38
2023-03-23T16:39:38.933Z,21.39
2023-03-23T16:42:06.195Z,21.39
2023-03-23T16:44:33.918Z,21.40
2023-03-23T16:47:01.389Z,21.40
2023-03-23T16:49:28.442Z,21.38
2023-03-23T16:51:55.665Z,21.36
2023-03-23T16:54:23.427Z,21.34
2023-03-23T16:56:50.771Z,21.30
2023-03-23T16:59:17.951Z,21.27
2023-03-23T17:01:45.277Z,21.23
2023-03-23T17:04:12.434Z,21.17
2023-03-23T17:06:39.508Z,21.13
2023-03-23T17:09:07.946Z,21.09
2023-03-23T17:11:35.354Z,21.06
2023-03-23T17:14:02.674Z,21.00
2023-03-23T17:16:29.666Z,20.94
2023-03-23T17:18:56.832Z,20.81
2023-03-23T17:21:25.851Z,20.73
2023-03-23T17:23:53.845Z,20.68
2023-03-23T17:26:20.916Z,20.61
2023-03-23T17:28:48.030Z,20.55
2023-03-23T17:31:15.706Z,20.48
2023-03-23T17:33:42.823Z,20.40
2023-03-23T17:36:10.194Z,20.33
2023-03-23T17:38:37.159Z,20.31
2023-03-23T17:41:06.441Z,20.27
2023-03-23T17:43:35.077Z,20.23
2023-03-23T17:46:02.352Z,20.19
2023-03-23T17:48:29.382Z,20.13
2023-03-23T17:51:02.600Z,20.06
2023-03-23T17:53:32.603Z,19.99
2023-03-23T17:55:59.842Z,19.92
2023-03-23T17:58:27.490Z,19.90
2023-03-23T18:00:56.551Z,19.85
2023-03-23T18:03:25.596Z,19.83
2023-03-23T18:05:59.916Z,19.78
2023-03-23T18:08:28.525Z,19.73
2023-03-23T18:10:58.629Z,19.71
2023-03-23T18:13:27.620Z,19.68
2023-03-23T18:15:56.514Z,19.63
2023-03-23T18:18:24.997Z,19.58
2023-03-23T18:21:02.436Z,19.55
2023-03-23T18:23:33.745Z,19.49
2023-03-23T18:26:00.882Z,19.45
2023-03-23T18:28:28.345Z,19.42
2023-03-23T18:31:02.945Z,19.37
2023-03-23T18:33:29.964Z,19.31
2023-03-23T18:36:00.324Z,19.25
2023-03-23T18:38:29.087Z,19.19
2023-03-23T18:40:56.054Z,19.11
2023-03-23T18:43:23.651Z,19.03
2023-03-23T18:45:56.871Z,18.95
2023-03-23T18:48:24.680Z,18.90
2023-03-23T18:50:55.746Z,18.87
2023-03-23T18:53:23.290Z,18.82
2023-03-23T18:55:51.337Z,18.76
2023-03-23T18:58:20.975Z,18.72
2023-03-23T19:00:50.063Z,18.63
2023-03-23T19:03:18.863Z,18.52
2023-03-23T19:05:47.060Z,18.45
2023-03-23T19:08:14.201Z,18.38
2023-03-23T19:10:43.260Z,18.34
2023-03-23T19:13:11.718Z,18.32
2023-03-23T19:15:40.482Z,18.21
2023-03-23T19:18:08.571Z,18.13
2023-03-23T19:23:07.225Z,18.02
2023-03-23T19:25:34.191Z,18.01
2023-03-23T19:30:32.633Z,17.98
2023-03-23T19:32:59.708Z,17.94
2023-03-23T19:35:27.139Z,17.93
2023-03-23T19:37:54.122Z,17.91
2023-03-23T19:40:36.653Z,17.91
2023-03-23T19:43:08.577Z,17.84
2023-03-23T19:45:36.356Z,17.75
2023-03-23T19:48:03.361Z,17.70
2023-03-23T19:50:31.710Z,17.69
2023-03-23T19:53:00.548Z,17.69
2023-03-23T19:55:27.718Z,17.70
2023-03-23T19:57:55.114Z,17.64
2023-03-23T20:00:24.416Z,17.62
2023-03-23T20:02:53.239Z,17.59
2023-03-23T20:05:20.647Z,17.58
2023-03-23T20:07:51.650Z,17.51
2023-03-23T20:10:19.328Z,17.55
2023-03-23T20:12:46.704Z,17.53
2023-03-23T20:15:14.121Z,17.52
2023-03-23T20:17:41.300Z,17.45
2023-03-23T20:20:10.591Z,17.42
2023-03-23T20:22:38.245Z,17.41
2023-03-23T20:25:07.525Z,17.41
2023-03-23T20:27:37.857Z,17.39
2023-03-23T20:30:07.502Z,17.38
2023-03-23T20:32:35.090Z,17.37
2023-03-23T20:35:09.373Z,17.31
2023-03-23T20:37:38.386Z,17.33
2023-03-23T20:40:13.231Z,17.31
2023-03-23T20:42:44.105Z,17.29
2023-03-23T20:45:13.102Z,17.29
2023-03-23T20:47:41.123Z,17.26
2023-03-23T20:50:10.779Z,17.24
2023-03-23T20:52:37.879Z,17.20
2023-03-23T20:55:05.673Z,17.14
2023-03-23T20:57:34.122Z,17.10
2023-03-23T21:00:02.396Z,17.09
2023-03-23T21:02:30.305Z,17.04
2023-03-23T21:04:58.226Z,17.00
2023-03-23T21:07:27.742Z,16.97
2023-03-23T21:09:54.662Z,16.95
2023-03-23T21:12:22.537Z,16.91
2023-03-23T21:14:49.631Z,16.87
2023-03-23T21:17:16.675Z,16.86
2023-03-23T21:19:44.025Z,16.82
2023-03-23T21:22:14.565Z,16.79
2023-03-23T21:24:41.637Z,16.76
2023-03-23T21:27:08.741Z,16.76
2023-03-23T21:29:35.731Z,16.73
2023-03-23T21:32:08.148Z,16.69
2023-03-23T21:34:37.256Z,16.68
2023-03-23T21:37:04.510Z,16.64
2023-03-23T21:39:31.789Z,16.63
2023-03-23T21:41:59.593Z,16.60
2023-03-23T21:44:26.717Z,16.55
2023-03-23T21:46:54.339Z,16.53
2023-03-23T21:49:21.919Z,16.55
2023-03-23T21:51:50.042Z,16.56
2023-03-23T21:54:17.270Z,16.56
2023-03-23T21:56:44.254Z,16.56
2023-03-23T21:59:11.465Z,16.54
2023-03-23T22:01:40.742Z,16.53
2023-03-23T22:04:08.645Z,16.50
2023-03-23T22:06:35.862Z,16.48
2023-03-23T22:09:05.472Z,16.46
2023-03-23T22:11:33.189Z,16.44
2023-03-23T22:14:00.483Z,16.41
2023-03-23T22:16:27.884Z,16.38
2023-03-23T22:18:58.090Z,16.35
2023-03-23T22:21:30.936Z,16.32
2023-03-23T22:24:00.515Z,16.29
2023-03-23T22:26:28.946Z,16.27
2023-03-23T22:28:57.214Z,16.23
2023-03-23T22:31:28.632Z,16.20
2023-03-23T22:33:57.545Z,16.19
2023-03-23T22:36:26.746Z,16.15
2023-03-23T22:38:55.590Z,16.11
2023-03-23T22:41:26.409Z,16.08
2023-03-23T22:43:54.010Z,16.05
2023-03-23T22:46:21.923Z,16.01
2023-03-23T22:48:49.100Z,15.99
2023-03-23T22:51:18.276Z,15.96
2023-03-23T22:53:47.203Z,15.93
2023-03-23T22:56:14.772Z,15.91
2023-03-23T22:58:41.841Z,15.87
2023-03-23T23:01:16.784Z,15.85
2023-03-23T23:03:44.419Z,15.82
2023-03-23T23:06:13.795Z,15.81
2023-03-23T23:08:41.571Z,15.79
2023-03-23T23:11:12.131Z,15.77
2023-03-23T23:13:40.984Z,15.74
2023-03-23T23:16:10.497Z,15.73
2023-03-23T23:18:40.199Z,15.72
2023-03-23T23:21:13.220Z,15.71
2023-03-23T23:23:40.920Z,15.68
2023-03-23T23:26:09.350Z,15.65
2023-03-23T23:28:36.870Z,15.63
2023-03-23T23:31:06.377Z,15.61
2023-03-23T23:33:33.612Z,15.56
2023-03-23T23:36:02.359Z,15.53
2023-03-23T23:38:29.437Z,15.52
2023-03-23T23:40:56.458Z,15.49
2023-03-23T23:43:23.557Z,15.47
2023-03-23T23:45:50.604Z,15.46
2023-03-23T23:48:18.401Z,15.45
2023-03-23T23:50:45.677Z,15.44
2023-03-23T23:53:13.140Z,15.45
2023-03-23T23:55:40.469Z,15.41
2023-03-23T23:58:07.613Z,15.42
